createdAt,value
2018-12-25T00:01:36.483Z,14.35
2018-12-25T00:04:15.989Z,12.37
2018-12-25T00:07:04.368Z,15.60
2018-12-25T00:10:11.450Z,17.75
2018-12-25T00:12:59.583Z,14.00
2018-12-25T00:15:47.710Z,13.90
2018-12-25T00:18:35.788Z,17.37
2018-12-25T00:21:23.849Z,15.13
2018-12-25T00:24:11.902Z,15.63
2018-12-25T00:26:59.967Z,14.75
2018-12-25T00:29:48.021Z,18.52
2018-12-25T00:35:11.414Z,19.67
2018-12-25T00:37:51.874Z,18.12
2018-12-25T00:40:32.636Z,18.10
2018-12-25T00:43:13.439Z,15.90
2018-12-25T00:45:54.363Z,18.15
2018-12-25T00:48:35.346Z,18.67
2018-12-25T00:51:16.050Z,16.20
2018-12-25T00:53:56.595Z,15.80
2018-12-25T00:56:37.217Z,15.90
2018-12-25T00:59:18.162Z,22.45
2018-12-25T01:01:58.699Z,18.23
2018-12-25T01:04:39.705Z,16.97
2018-12-25T01:07:20.483Z,16.77
2018-12-25T01:10:01.133Z,15.98
2018-12-25T01:12:30.155Z,15.50
2018-12-25T01:15:18.195Z,19.77
2018-12-25T01:18:06.242Z,20.88
2018-12-25T01:20:35.562Z,18.20
2018-12-25T01:23:23.619Z,19.57
2018-12-25T01:26:11.795Z,19.25
2018-12-25T01:29:00.009Z,21.07
2018-12-25T01:31:28.856Z,22.60
2018-12-25T01:34:16.899Z,19.02
2018-12-25T01:37:04.929Z,20.65
2018-12-25T01:39:53.047Z,23.05
2018-12-25T01:42:41.156Z,21.82
2018-12-25T01:45:29.282Z,20.60
2018-12-25T01:48:17.306Z,18.82
2018-12-25T01:51:05.351Z,19.98
2018-12-25T01:53:53.370Z,21.73
2018-12-25T01:56:41.489Z,18.32
2018-12-25T01:59:29.541Z,23.30
2018-12-25T02:02:17.886Z,23.62
2018-12-25T02:05:05.983Z,20.40
2018-12-25T02:07:54.124Z,22.35
2018-12-25T02:10:42.239Z,23.15
2018-12-25T02:13:30.285Z,22.42
2018-12-25T02:16:18.330Z,20.97
2018-12-25T02:19:06.738Z,21.40
2018-12-25T02:21:54.766Z,27.65
2018-12-25T02:24:42.822Z,20.77
2018-12-25T02:27:30.866Z,19.82
2018-12-25T02:30:21.831Z,26.07
2018-12-25T02:33:02.558Z,21.15
2018-12-25T02:35:43.665Z,22.82
2018-12-25T02:38:24.087Z,22.77
2018-12-25T02:41:04.715Z,22.17
2018-12-25T02:43:45.346Z,24.23
2018-12-25T02:46:26.550Z,22.58
2018-12-25T02:49:07.361Z,22.98
2018-12-25T02:51:48.137Z,24.00
2018-12-25T02:54:28.899Z,21.30
2018-12-25T02:57:09.876Z,27.13
2018-12-25T02:59:50.403Z,26.57
2018-12-25T03:02:31.456Z,28.45
2018-12-25T03:05:12.735Z,23.02
2018-12-25T03:10:55.232Z,23.18
2018-12-25T03:13:43.391Z,19.95
2018-12-25T03:16:12.287Z,22.62
2018-12-25T03:18:41.098Z,17.55
2018-12-25T03:21:29.224Z,22.55
2018-12-25T03:24:17.334Z,15.75
2018-12-25T03:27:05.391Z,14.93
2018-12-25T03:29:53.490Z,15.53
2018-12-25T03:32:34.475Z,16.77
2018-12-25T03:35:15.039Z,14.40
2018-12-25T03:37:55.802Z,14.90
2018-12-25T03:40:36.585Z,15.88
2018-12-25T03:43:17.172Z,14.38
2018-12-25T03:45:57.818Z,13.22
2018-12-25T03:48:38.388Z,12.43
2018-12-25T03:51:19.001Z,13.43
2018-12-25T03:53:59.593Z,16.60
2018-12-25T03:56:40.228Z,14.55
2018-12-25T03:59:21.159Z,17.35
2018-12-25T04:02:02.021Z,24.10
2018-12-25T04:04:43.037Z,24.87
2018-12-25T04:07:23.447Z,19.92
2018-12-25T04:10:04.048Z,22.48
2018-12-25T04:12:32.862Z,23.12
2018-12-25T04:15:20.991Z,17.80
2018-12-25T04:18:09.105Z,22.67
2018-12-25T04:20:57.255Z,18.95
2018-12-25T04:23:45.448Z,20.08
2018-12-25T04:26:33.587Z,20.70
2018-12-25T04:29:21.695Z,21.90
2018-12-25T04:32:02.843Z,22.60
2018-12-25T04:34:43.702Z,22.65
2018-12-25T04:37:24.610Z,23.35
2018-12-25T04:40:05.206Z,21.55
2018-12-25T04:42:45.794Z,25.77
2018-12-25T04:45:26.659Z,24.30
2018-12-25T04:48:07.482Z,24.95
2018-12-25T04:50:48.251Z,24.67
2018-12-25T04:53:29.121Z,28.00
2018-12-25T04:56:09.856Z,23.22
2018-12-25T04:58:50.553Z,21.82
2018-12-25T05:01:31.340Z,24.75
2018-12-25T05:04:10.547Z,21.17
2018-12-25T05:06:58.663Z,26.30
2018-12-25T05:09:46.719Z,20.08
2018-12-25T05:12:34.773Z,20.12
2018-12-25T05:15:22.815Z,20.48
2018-12-25T05:18:10.859Z,24.92
2018-12-25T05:20:39.822Z,26.02
2018-12-25T05:23:27.946Z,24.90
2018-12-25T05:26:16.002Z,23.42
2018-12-25T05:29:04.110Z,26.62
2018-12-25T05:31:52.263Z,19.27
2018-12-25T05:34:40.535Z,23.40
2018-12-25T05:37:28.618Z,26.35
2018-12-25T05:40:16.703Z,27.98
2018-12-25T05:43:04.750Z,24.45
2018-12-25T05:45:53.274Z,23.90
2018-12-25T05:48:41.407Z,22.65
2018-12-25T05:51:29.530Z,27.05
2018-12-25T05:54:17.636Z,29.40
2018-12-25T05:57:05.754Z,27.32
2018-12-25T05:59:54.099Z,27.62
2018-12-25T06:02:42.555Z,25.65
2018-12-25T06:05:30.596Z,22.35
2018-12-25T06:08:18.658Z,27.95
2018-12-25T06:11:06.915Z,23.77
2018-12-25T06:13:54.999Z,27.67
2018-12-25T06:16:45.038Z,25.43
2018-12-25T06:19:33.159Z,23.57
2018-12-25T06:22:21.277Z,25.97
2018-12-25T06:25:09.662Z,30.82
2018-12-25T06:27:57.718Z,31.82
2018-12-25T06:30:45.754Z,23.65
2018-12-25T06:33:26.910Z,24.37
2018-12-25T06:36:07.347Z,22.02
2018-12-25T06:38:48.155Z,26.50
2018-12-25T06:41:28.791Z,25.90
2018-12-25T06:44:09.341Z,24.60
2018-12-25T06:46:50.112Z,28.87
2018-12-25T06:49:32.224Z,27.32
2018-12-25T06:52:12.707Z,22.13
2018-12-25T06:54:53.411Z,26.85
2018-12-25T06:57:34.252Z,22.60
2018-12-25T07:00:14.908Z,23.20
2018-12-25T07:02:55.939Z,21.52
2018-12-25T07:05:36.822Z,25.92
2018-12-25T07:08:17.606Z,23.62
2018-12-25T07:10:58.216Z,23.30
2018-12-25T07:13:38.699Z,23.80
2018-12-25T07:16:19.557Z,23.32
2018-12-25T07:19:00.238Z,24.75
2018-12-25T07:21:41.365Z,27.25
2018-12-25T07:24:21.812Z,26.35
2018-12-25T07:27:03.731Z,25.50
2018-12-25T07:29:32.663Z,23.92
2018-12-25T07:32:13.015Z,24.12
2018-12-25T07:34:57.204Z,24.63
2018-12-25T07:37:37.964Z,24.87
2018-12-25T07:40:18.491Z,22.65
2018-12-25T07:42:59.184Z,23.32
2018-12-25T07:45:39.703Z,22.02
2018-12-25T07:48:20.391Z,19.60
2018-12-25T07:56:39.021Z,20.68
2018-12-25T07:59:19.697Z,19.37
2018-12-25T08:02:00.838Z,18.77
2018-12-25T08:04:41.264Z,20.23
2018-12-25T08:07:22.132Z,19.10
2018-12-25T08:10:03.372Z,21.93
2018-12-25T08:12:43.981Z,26.55
2018-12-25T08:15:24.452Z,21.00
2018-12-25T08:20:51.067Z,20.90
2018-12-25T08:23:31.425Z,20.82
2018-12-25T08:26:12.101Z,17.80
2018-12-25T08:28:53.056Z,21.23
2018-12-25T08:31:33.758Z,23.12
2018-12-25T08:34:14.858Z,22.35
2018-12-25T08:36:56.080Z,23.32
2018-12-25T08:39:36.689Z,25.85
2018-12-25T08:42:17.729Z,46.60
2018-12-25T08:44:58.252Z,22.35
2018-12-25T08:47:38.910Z,26.57
2018-12-25T08:50:19.764Z,22.90
2018-12-25T08:53:00.447Z,33.33
2018-12-25T08:55:41.391Z,31.15
2018-12-25T08:58:22.150Z,26.62
2018-12-25T09:01:02.891Z,28.75
2018-12-25T09:03:43.517Z,29.30
2018-12-25T09:06:24.626Z,25.00
2018-12-25T09:09:05.352Z,28.67
2018-12-25T09:11:46.225Z,44.88
2018-12-25T09:14:26.824Z,26.00
2018-12-25T09:17:08.407Z,32.28
2018-12-25T09:19:49.397Z,33.20
2018-12-25T09:22:30.508Z,25.60
2018-12-25T09:25:11.171Z,27.00
2018-12-25T09:27:51.993Z,29.05
2018-12-25T09:30:33.109Z,27.70
2018-12-25T09:33:14.280Z,25.37
2018-12-25T09:35:55.072Z,24.52
2018-12-25T09:38:35.812Z,26.57
2018-12-25T09:41:16.496Z,29.98
2018-12-25T09:43:57.171Z,27.07
2018-12-25T09:46:26.171Z,28.12
2018-12-25T09:49:17.293Z,26.70
2018-12-25T09:52:09.310Z,27.20
2018-12-25T09:54:38.417Z,25.85
2018-12-25T09:57:26.483Z,25.82
2018-12-25T10:00:15.026Z,27.75
2018-12-25T10:03:03.100Z,28.42
2018-12-25T10:05:32.279Z,28.30
2018-12-25T10:11:29.355Z,23.92
2018-12-25T10:14:17.480Z,27.82
2018-12-25T10:17:05.656Z,25.57
2018-12-25T10:19:53.712Z,29.00
2018-12-25T10:22:41.928Z,24.52
2018-12-25T10:25:10.931Z,32.83
2018-12-25T10:27:39.863Z,23.95
2018-12-25T10:30:28.082Z,29.85
2018-12-25T10:33:09.364Z,22.90
2018-12-25T10:35:38.779Z,23.05
2018-12-25T10:38:26.927Z,26.70
2018-12-25T10:41:33.643Z,20.80
2018-12-25T10:44:21.820Z,21.70
2018-12-25T10:47:09.937Z,22.73
2018-12-25T10:49:58.030Z,27.10
2018-12-25T10:52:26.885Z,27.02
2018-12-25T10:55:15.020Z,29.10
2018-12-25T10:58:04.598Z,26.48
2018-12-25T11:01:00.122Z,23.45
2018-12-25T11:03:48.260Z,26.82
2018-12-25T11:09:51.825Z,22.27
2018-12-25T11:15:09.396Z,24.55
2018-12-25T11:23:28.973Z,20.40
2018-12-25T11:25:57.923Z,23.20
2018-12-25T11:28:46.044Z,23.22
2018-12-25T11:31:26.828Z,20.65
2018-12-25T11:34:07.601Z,22.58
2018-12-25T11:36:48.488Z,22.15
2018-12-25T11:39:17.348Z,20.55
2018-12-25T11:42:06.751Z,20.05
2018-12-25T11:44:54.940Z,21.65
2018-12-25T11:47:43.029Z,22.20
2018-12-25T11:50:11.900Z,19.90
2018-12-25T11:52:59.982Z,20.77
2018-12-25T11:55:29.400Z,24.55
2018-12-25T11:58:17.619Z,21.00
2018-12-25T12:01:05.778Z,20.77
2018-12-25T12:03:53.913Z,24.27
2018-12-25T12:06:22.874Z,24.90
2018-12-25T12:09:11.033Z,21.60
2018-12-25T12:11:59.120Z,22.48
2018-12-25T12:14:47.215Z,23.22
2018-12-25T12:17:35.355Z,22.62
2018-12-25T12:20:23.518Z,20.75
2018-12-25T12:26:02.430Z,22.93
2018-12-25T12:28:50.768Z,20.90
2018-12-25T12:31:31.471Z,25.65
2018-12-25T12:34:12.421Z,22.75
2018-12-25T12:36:53.385Z,29.45
2018-12-25T12:39:34.784Z,28.73
2018-12-25T12:42:15.982Z,33.60
2018-12-25T12:44:55.136Z,21.55
2018-12-25T12:47:27.140Z,21.48
2018-12-25T12:50:15.327Z,19.60
2018-12-25T12:53:03.481Z,21.33
2018-12-25T12:55:51.619Z,20.00
2018-12-25T12:58:39.745Z,21.90
2018-12-25T13:01:27.903Z,25.60
2018-12-25T13:04:16.020Z,22.10
2018-12-25T13:06:44.972Z,19.77
2018-12-25T13:09:33.198Z,24.37
2018-12-25T13:12:02.210Z,23.65
2018-12-25T13:17:52.624Z,24.90
2018-12-25T13:20:40.795Z,22.15
2018-12-25T13:23:28.919Z,25.68
2018-12-25T13:25:57.859Z,23.42
2018-12-25T13:28:45.989Z,28.62
2018-12-25T13:31:34.155Z,24.60
2018-12-25T13:34:41.319Z,30.52
2018-12-25T13:37:29.486Z,27.00
2018-12-25T13:40:17.637Z,25.43
2018-12-25T13:43:05.725Z,25.80
2018-12-25T13:45:53.877Z,22.13
2018-12-25T13:48:42.020Z,23.27
2018-12-25T13:51:30.147Z,29.70
2018-12-25T13:54:18.219Z,22.87
2018-12-25T13:57:06.398Z,26.17
2018-12-25T13:59:54.635Z,26.60
2018-12-25T14:02:43.001Z,28.42
2018-12-25T14:05:31.165Z,25.68
2018-12-25T14:08:19.427Z,29.87
2018-12-25T14:11:07.512Z,24.65
2018-12-25T14:13:55.664Z,27.15
2018-12-25T14:16:43.831Z,29.02
2018-12-25T14:19:31.967Z,30.65
2018-12-25T14:22:20.092Z,28.05
2018-12-25T14:25:08.423Z,27.70
2018-12-25T14:28:08.540Z,25.77
2018-12-25T14:30:46.468Z,23.02
2018-12-25T14:33:27.160Z,23.22
2018-12-25T14:36:07.921Z,25.23
2018-12-25T14:38:49.083Z,30.00
2018-12-25T14:41:30.028Z,26.90
2018-12-25T14:46:53.071Z,22.58
2018-12-25T14:49:33.614Z,26.45
2018-12-25T14:52:14.376Z,27.32
2018-12-25T14:57:43.293Z,25.25
2018-12-25T15:00:12.234Z,21.82
2018-12-25T15:03:00.302Z,23.57
2018-12-25T15:05:48.427Z,27.65
2018-12-25T15:08:38.924Z,38.67
2018-12-25T15:11:27.048Z,48.05
2018-12-25T15:14:15.200Z,22.13
2018-12-25T15:17:03.635Z,24.77
2018-12-25T15:19:51.713Z,23.70
2018-12-25T15:22:40.724Z,26.35
2018-12-25T15:25:28.884Z,28.62
2018-12-25T15:28:17.050Z,25.75
2018-12-25T15:30:45.972Z,29.12
2018-12-25T15:33:27.068Z,30.10
2018-12-25T15:35:56.059Z,27.07
2018-12-25T15:38:44.115Z,24.72
2018-12-25T15:41:32.260Z,21.97
2018-12-25T15:44:20.335Z,24.87
2018-12-25T15:47:09.910Z,24.63
2018-12-25T15:49:58.061Z,25.00
2018-12-25T15:52:46.203Z,22.32
2018-12-25T15:55:34.328Z,22.87
2018-12-25T15:58:22.886Z,19.12
2018-12-25T16:01:11.022Z,25.48
2018-12-25T16:03:59.170Z,25.27
2018-12-25T16:06:47.321Z,25.90
2018-12-25T16:12:30.631Z,30.62
2018-12-25T16:15:32.300Z,23.38
2018-12-25T16:18:09.760Z,28.27
2018-12-25T16:20:57.828Z,30.65
2018-12-25T16:23:46.019Z,23.55
2018-12-25T16:26:15.099Z,25.68
2018-12-25T16:29:03.252Z,20.90
2018-12-25T16:31:51.525Z,25.95
2018-12-25T16:34:39.671Z,32.98
2018-12-25T16:37:27.768Z,24.40
2018-12-25T16:40:15.947Z,28.40
2018-12-25T16:43:04.103Z,26.42
2018-12-25T16:45:52.315Z,26.55
2018-12-25T16:48:23.879Z,26.17
2018-12-25T16:51:12.513Z,24.20
2018-12-25T16:54:06.272Z,24.07
2018-12-25T16:56:54.446Z,27.05
2018-12-25T16:59:24.077Z,28.87
2018-12-25T17:02:12.283Z,27.17
2018-12-25T17:05:19.820Z,25.15
2018-12-25T17:08:08.144Z,27.37
2018-12-25T17:10:56.230Z,33.55
2018-12-25T17:13:46.697Z,27.07
2018-12-25T17:16:34.828Z,27.00
2018-12-25T17:19:22.975Z,28.80
2018-12-25T17:22:11.216Z,27.50
2018-12-25T17:24:59.769Z,28.85
2018-12-25T17:27:49.888Z,28.15
2018-12-25T17:30:50.042Z,29.25
2018-12-25T17:33:20.386Z,27.15
2018-12-25T17:36:01.677Z,27.52
2018-12-25T17:38:42.482Z,27.60
2018-12-25T17:41:24.912Z,25.00
2018-12-25T17:44:05.751Z,27.65
2018-12-25T17:46:35.095Z,30.30
2018-12-25T17:50:01.805Z,30.50
2018-12-25T17:52:31.073Z,31.70
2018-12-25T17:55:00.040Z,42.38
2018-12-25T17:57:31.735Z,26.12
2018-12-25T18:00:19.960Z,27.73
2018-12-25T18:02:49.169Z,26.65
2018-12-25T18:05:37.267Z,28.80
2018-12-25T18:08:25.528Z,30.70
2018-12-25T18:11:13.629Z,30.02
2018-12-25T18:17:19.319Z,28.60
2018-12-25T18:20:07.572Z,27.37
2018-12-25T18:23:15.141Z,30.95
2018-12-25T18:26:03.285Z,27.95
2018-12-25T18:28:51.418Z,28.75
2018-12-25T18:31:39.526Z,30.17
2018-12-25T18:34:23.472Z,27.17
2018-12-25T18:37:04.036Z,27.87
2018-12-25T18:40:11.502Z,31.82
2018-12-25T18:43:01.655Z,39.15
2018-12-25T18:45:49.972Z,54.95
2018-12-25T18:48:38.291Z,33.10
2018-12-25T18:51:26.491Z,41.83
2018-12-25T18:54:14.648Z,33.05
2018-12-25T18:57:02.905Z,35.52
2018-12-25T18:59:53.654Z,36.45
2018-12-25T19:02:41.729Z,35.28
2018-12-25T19:08:39.183Z,38.90
2018-12-25T19:12:05.497Z,40.28
2018-12-25T19:15:12.741Z,31.97
2018-12-25T19:20:56.774Z,35.45
2018-12-25T19:24:04.044Z,43.45
2018-12-25T19:26:52.131Z,41.00
2018-12-25T19:29:40.277Z,39.95
2018-12-25T19:32:21.154Z,33.65
2018-12-25T19:35:02.224Z,34.65
2018-12-25T19:37:43.141Z,38.85
2018-12-25T19:40:23.572Z,37.15
2018-12-25T19:43:04.455Z,32.95
2018-12-25T19:45:45.287Z,36.68
2018-12-25T19:48:26.065Z,35.98
2018-12-25T19:51:08.083Z,32.13
2018-12-25T19:53:49.104Z,34.40
2018-12-25T19:56:29.755Z,33.15
2018-12-25T19:59:12.728Z,41.23
2018-12-25T20:04:42.423Z,43.28
2018-12-25T20:07:49.646Z,41.98
2018-12-25T20:10:56.883Z,52.67
2018-12-25T20:14:04.120Z,43.05
2018-12-25T20:20:24.515Z,46.20
2018-12-25T20:23:31.831Z,37.93
2018-12-25T20:26:58.165Z,37.05
2018-12-25T20:30:08.414Z,37.75
2018-12-25T20:32:48.935Z,45.10
2018-12-25T20:35:30.156Z,37.30
2018-12-25T20:38:10.999Z,43.13
2018-12-25T20:40:54.105Z,40.05
2018-12-25T20:43:35.297Z,39.98
2018-12-25T20:46:15.638Z,43.78
2018-12-25T20:49:24.703Z,45.10
2018-12-25T20:52:32.112Z,36.77
2018-12-25T20:55:39.350Z,41.63
2018-12-25T20:58:41.119Z,45.33
2018-12-25T21:01:49.787Z,43.35
2018-12-25T21:04:57.124Z,31.93
2018-12-25T21:08:14.871Z,33.80
2018-12-25T21:11:22.127Z,35.58
2018-12-25T21:14:29.388Z,35.63
2018-12-25T21:21:01.903Z,39.00
2018-12-25T21:24:09.149Z,38.75
2018-12-25T21:27:16.395Z,38.33
2018-12-25T21:30:06.048Z,34.67
2018-12-25T21:32:46.667Z,37.33
2018-12-25T21:35:21.529Z,39.53
2018-12-25T21:38:09.684Z,35.03
2018-12-25T21:40:57.806Z,33.48
2018-12-25T21:43:45.952Z,38.95
2018-12-25T21:46:34.066Z,35.13
2018-12-25T21:49:22.288Z,36.35
2018-12-25T21:52:10.436Z,37.40
2018-12-25T21:54:58.567Z,34.23
2018-12-25T21:57:46.894Z,35.13
2018-12-25T22:00:35.463Z,37.70
2018-12-25T22:03:24.876Z,35.30
2018-12-25T22:05:54.971Z,38.15
2018-12-25T22:08:23.832Z,36.95
2018-12-25T22:11:11.948Z,38.83
2018-12-25T22:14:00.123Z,36.63
2018-12-25T22:16:48.238Z,37.30
2018-12-25T22:19:36.403Z,41.10
2018-12-25T22:22:33.066Z,34.67
2018-12-25T22:25:27.019Z,39.13
2018-12-25T22:28:11.194Z,34.35
2018-12-25T22:30:59.233Z,33.70
2018-12-25T22:33:39.752Z,34.08
2018-12-25T22:36:20.477Z,35.28
2018-12-25T22:39:01.649Z,41.90
2018-12-25T22:41:42.463Z,35.45
2018-12-25T22:44:23.018Z,37.25
2018-12-25T22:47:03.881Z,37.15
2018-12-25T22:49:44.563Z,33.35
2018-12-25T22:55:07.805Z,39.05
2018-12-25T22:57:48.687Z,34.67
2018-12-25T23:00:31.201Z,38.42
2018-12-25T23:03:11.523Z,33.95
2018-12-25T23:05:52.598Z,44.83
2018-12-25T23:08:33.542Z,34.35
2018-12-25T23:11:14.706Z,37.08
2018-12-25T23:13:55.393Z,35.58
2018-12-25T23:16:36.243Z,35.08
2018-12-25T23:19:17.235Z,43.75
2018-12-25T23:21:58.106Z,34.55
2018-12-25T23:24:39.448Z,33.30
2018-12-25T23:27:20.374Z,37.00
2018-12-25T23:30:01.360Z,39.05
2018-12-25T23:32:42.264Z,39.25
2018-12-25T23:35:23.047Z,42.70
2018-12-25T23:38:03.631Z,34.55
2018-12-25T23:40:44.318Z,39.42
2018-12-25T23:43:25.012Z,37.75
2018-12-25T23:46:05.790Z,39.25
2018-12-25T23:48:46.887Z,38.50
2018-12-25T23:51:27.649Z,36.08
2018-12-25T23:54:08.223Z,39.98
2018-12-25T23:56:49.315Z,50.12
2018-12-25T23:59:30.031Z,39.05
